Overview Statistics Trail Chart Weather Telemetry Raw packets
 

This is the latest recevied weather packets stored in our database for station/object IT9DBI-3. If no packets are shown the sender has not sent any weather packets the latest 10 day(s).

<< 6 7 8 9 10 11 12 >>
Time Temp. Humidity Pressure Rain* Wind** Luminosity Snow
1788376856 31.11° C 56% 1016.9 hPa - - - -
1788375655 31.11° C 55% 1016.8 hPa - - - -
1788374454 31.67° C 53% 1016.6 hPa - - - -
1788373253 31.67° C 54% 1016.3 hPa - - - -
1788372051 31.67° C 57% 1016.2 hPa - - - -
1788370851 32.78° C 54% 1015.8 hPa - - - -
1788369649 33.33° C 52% 1015.8 hPa - - - -
1788368447 33.89° C 50% 1015.9 hPa - - - -
1788367246 34.44° C 47% 1016 hPa - - - -
1788366045 35.56° C 44% 1016 hPa - - - -
1788364844 35.56° C 44% 1016 hPa - - - -
1788363642 36.11° C 43% 1016 hPa - - - -
1788362441 36.11° C 42% 1016 hPa - - - -
1788361239 37.78° C 40% 1016 hPa - - - -
1788360038 37.22° C 40% 1016.2 hPa - - - -
1788358837 37.22° C 40% 1016.1 hPa - - - -
1788357635 37.22° C 40% 1016.3 hPa - - - -
1788356434 37.22° C 39% 1016.4 hPa - - - -
1788355233 36.67° C 40% 1016.6 hPa - - - -
1788354032 36.67° C 38% 1016.9 hPa - - - -
1788352830 35° C 43% 1017.1 hPa - - - -
1788351629 36.11° C 42% 1017.2 hPa - - - -
1788350428 35.56° C 44% 1017.3 hPa - - - -
1788349227 35.56° C 43% 1017.4 hPa - - - -
1788348025 35.56° C 44% 1017.3 hPa - - - -

* Rain since midnight (hover to see other rain measurements)
** Current wind speed in m/s (hover to see current wind gust speed)